Time;durP1;ratioP1;P1;durP2;ratioP2;P2;SDS_P1;SDS_P2;PMS_P1;PMS_P2;Temp;Humidity;BMP_temperature;BMP_pressure;BME280_temperature;BME280_humidity;BME280_pressure;Samples;Min_cycle;Max_cycle;Signal;HPM_P1;HPM_P2
2023/09/19 00:01:12;;;;;;;113.97;105.35;;;;;;;;;;5016580;28;20104;-57
2023/09/19 00:03:38;;;;;;;46.77;43.17;;;;;;;;;;5022920;28;20055;-56
2023/09/19 00:06:07;;;;;;;74.13;68.90;;;;;;;;;;5011061;28;20393;-57
2023/09/19 00:08:33;;;;;;;91.18;84.50;;;;;;;;;;5010765;28;20089;-57
2023/09/19 00:11:05;;;;;;;148.32;136.57;;;;;;;;;;5016684;28;20101;-56
2023/09/19 00:13:30;;;;;;;37.55;34.65;;;;;;;;;;5028138;28;20033;-57
2023/09/19 00:15:58;;;;;;;47.03;43.33;;;;;;;;;;5021944;28;20393;-57
2023/09/19 00:18:28;;;;;;;47.15;43.60;;;;;;;;;;5021872;28;20045;-57
2023/09/19 00:20:56;;;;;;;111.18;102.68;;;;;;;;;;5021232;28;20018;-57
2023/09/19 00:23:21;;;;;;;56.03;51.78;;;;;;;;;;5019027;28;20026;-57
2023/09/19 00:25:47;;;;;;;106.80;99.68;;;;;;;;;;5018590;28;20031;-58
2023/09/19 00:28:12;;;;;;;88.95;82.55;;;;;;;;;;5017281;28;20025;-57
2023/09/19 00:30:38;;;;;;;72.28;67.07;;;;;;;;;;5010381;28;20022;-59
2023/09/19 00:33:06;;;;;;;48.92;45.40;;;;;;;;;;5025017;28;20477;-57
2023/09/19 00:35:31;;;;;;;33.75;31.05;;;;;;;;;;5022259;28;20029;-58
2023/09/19 00:37:56;;;;;;;68.93;64.10;;;;;;;;;;5021871;28;20139;-57
2023/09/19 00:40:21;;;;;;;140.90;129.98;;;;;;;;;;5014964;28;20057;-58
2023/09/19 00:42:47;;;;;;;75.27;68.63;;;;;;;;;;5018250;28;20033;-57
2023/09/19 00:45:13;;;;;;;120.40;112.18;;;;;;;;;;5011617;28;20029;-58
2023/09/19 00:47:42;;;;;;;131.18;121.57;;;;;;;;;;5016470;28;20028;-58
2023/09/19 00:50:08;;;;;;;109.95;102.10;;;;;;;;;;5019802;28;20485;-58
2023/09/19 00:52:36;;;;;;;143.80;132.80;;;;;;;;;;5022642;28;20155;-57
2023/09/19 00:55:02;;;;;;;51.47;47.95;;;;;;;;;;5028237;28;20026;-58
2023/09/19 00:57:27;;;;;;;86.25;80.45;;;;;;;;;;5018526;28;20385;-58
2023/09/19 00:59:54;;;;;;;174.23;162.57;;;;;;;;;;5021632;28;20014;-58
2023/09/19 01:02:19;;;;;;;57.42;53.05;;;;;;;;;;5018956;28;20021;-58
2023/09/19 01:04:44;;;;;;;49.93;46.50;;;;;;;;;;5021321;28;20501;-57
2023/09/19 01:07:10;;;;;;;102.40;95.10;;;;;;;;;;5014901;28;20029;-58
2023/09/19 01:09:35;;;;;;;42.78;39.72;;;;;;;;;;5023028;28;20029;-58
2023/09/19 01:12:02;;;;;;;30.10;27.65;;;;;;;;;;5010184;28;20040;-57
2023/09/19 01:14:34;;;;;;;130.82;120.38;;;;;;;;;;5010971;28;20022;-58
2023/09/19 01:17:05;;;;;;;76.68;70.93;;;;;;;;;;5028145;28;20464;-58
2023/09/19 01:19:51;;;;;;;46.97;43.28;;;;;;;;;;5021657;28;20032;-58
2023/09/19 01:22:34;;;;;;;130.45;120.80;;;;;;;;;;5019772;28;20115;-58
2023/09/19 01:25:06;;;;;;;31.63;29.08;;;;;;;;;;5029715;28;20017;-58
2023/09/19 01:27:43;;;;;;;54.35;50.50;;;;;;;;;;5020145;28;20510;-58
2023/09/19 01:30:09;;;;;;;92.45;85.78;;;;;;;;;;5015693;28;20021;-58
2023/09/19 01:32:34;;;;;;;51.15;47.58;;;;;;;;;;5014685;28;20036;-58
2023/09/19 01:35:03;;;;;;;51.97;48.37;;;;;;;;;;5014133;28;20048;-58
2023/09/19 01:37:29;;;;;;;136.05;126.47;;;;;;;;;;5017751;28;20092;-58
2023/09/19 01:39:56;;;;;;;59.78;55.15;;;;;;;;;;5023126;28;20018;-59
2023/09/19 01:42:30;;;;;;;70.45;65.53;;;;;;;;;;5023515;28;20525;-56
2023/09/19 01:44:59;;;;;;;41.65;38.90;;;;;;;;;;5016247;28;20017;-57
2023/09/19 01:47:35;;;;;;;42.65;39.13;;;;;;;;;;5018442;28;20029;-57
2023/09/19 01:50:18;;;;;;;66.60;61.88;;;;;;;;;;5016707;28;20110;-57
2023/09/19 01:52:47;;;;;;;198.07;183.27;;;;;;;;;;5025393;28;20101;-57
2023/09/19 01:55:17;;;;;;;75.20;69.68;;;;;;;;;;5014075;28;20477;-57
2023/09/19 01:57:48;;;;;;;214.55;197.60;;;;;;;;;;5021364;28;20501;-57
2023/09/19 02:00:14;;;;;;;202.68;188.23;;;;;;;;;;5024530;28;20806;-57
2023/09/19 02:02:40;;;;;;;32.58;30.13;;;;;;;;;;5024904;28;20025;-57
2023/09/19 02:05:06;;;;;;;55.80;51.47;;;;;;;;;;5020063;28;20489;-58
2023/09/19 02:07:31;;;;;;;43.55;40.38;;;;;;;;;;5027715;28;20022;-57
2023/09/19 02:09:57;;;;;;;69.05;64.38;;;;;;;;;;5020457;28;20389;-57
2023/09/19 02:12:22;;;;;;;62.97;58.47;;;;;;;;;;5021169;28;20386;-57
2023/09/19 02:14:48;;;;;;;94.90;88.65;;;;;;;;;;5016779;28;20173;-57
2023/09/19 02:17:13;;;;;;;58.28;54.05;;;;;;;;;;5029619;28;20041;-57
2023/09/19 02:19:39;;;;;;;47.50;44.37;;;;;;;;;;5026322;28;20026;-57
2023/09/19 02:22:10;;;;;;;48.97;45.47;;;;;;;;;;5022411;28;20079;-57
2023/09/19 02:24:36;;;;;;;33.28;30.67;;;;;;;;;;5018958;28;20114;-57
2023/09/19 02:27:04;;;;;;;64.30;59.70;;;;;;;;;;5015355;28;20045;-57
2023/09/19 02:29:29;;;;;;;196.57;182.30;;;;;;;;;;5019712;28;20088;-57
2023/09/19 02:31:55;;;;;;;56.30;52.15;;;;;;;;;;5026448;28;20022;-57
2023/09/19 02:34:21;;;;;;;102.63;95.60;;;;;;;;;;5041559;28;20029;-58
2023/09/19 02:36:46;;;;;;;67.90;63.10;;;;;;;;;;5030112;28;20036;-57
2023/09/19 02:39:11;;;;;;;62.00;57.37;;;;;;;;;;5020533;28;20088;-57
2023/09/19 02:41:36;;;;;;;116.07;107.78;;;;;;;;;;5012926;28;21062;-57
2023/09/19 02:44:02;;;;;;;43.40;40.37;;;;;;;;;;5017524;28;20567;-58
2023/09/19 02:46:27;;;;;;;35.08;32.58;;;;;;;;;;5020144;28;20033;-57
2023/09/19 02:48:54;;;;;;;173.55;158.98;;;;;;;;;;5019798;28;20049;-58
2023/09/19 02:51:20;;;;;;;54.47;50.80;;;;;;;;;;5019214;28;20014;-57
2023/09/19 02:53:47;;;;;;;73.97;68.28;;;;;;;;;;5012206;28;20092;-58
2023/09/19 02:56:13;;;;;;;97.25;90.28;;;;;;;;;;5020068;28;20033;-57
2023/09/19 02:58:39;;;;;;;107.85;100.47;;;;;;;;;;5024009;28;20388;-58
2023/09/19 03:01:08;;;;;;;194.60;180.93;;;;;;;;;;5013659;28;20022;-57
2023/09/19 03:03:33;;;;;;;91.55;85.20;;;;;;;;;;5015754;28;20018;-57
2023/09/19 03:05:58;;;;;;;103.50;96.50;;;;;;;;;;5011788;28;20021;-57
2023/09/19 03:08:24;;;;;;;146.53;136.63;;;;;;;;;;5012817;28;20466;-58
2023/09/19 03:10:50;;;;;;;81.38;75.72;;;;;;;;;;5011733;28;20046;-58
2023/09/19 03:13:15;;;;;;;51.10;47.75;;;;;;;;;;5020002;28;20045;-57
2023/09/19 03:15:41;;;;;;;50.93;47.27;;;;;;;;;;5017298;28;20191;-58
2023/09/19 03:18:06;;;;;;;31.45;29.23;;;;;;;;;;5011815;28;20018;-57
2023/09/19 03:20:31;;;;;;;61.35;57.38;;;;;;;;;;5015332;28;20025;-57
2023/09/19 03:22:57;;;;;;;47.57;44.23;;;;;;;;;;5022534;28;20104;-58
2023/09/19 03:25:23;;;;;;;93.35;86.78;;;;;;;;;;5030375;28;20013;-59
2023/09/19 03:27:48;;;;;;;179.05;166.75;;;;;;;;;;5021076;28;20035;-58
2023/09/19 03:30:13;;;;;;;86.87;80.97;;;;;;;;;;5019852;28;20381;-58
2023/09/19 03:32:49;;;;;;;127.72;119.88;;;;;;;;;;5011600;28;20030;-58
2023/09/19 03:35:14;;;;;;;45.03;41.95;;;;;;;;;;5011256;28;20026;-59
2023/09/19 03:37:43;;;;;;;206.87;191.33;;;;;;;;;;5011329;28;20461;-57
2023/09/19 03:40:10;;;;;;;57.60;53.35;;;;;;;;;;5018310;28;20095;-59
2023/09/19 03:42:37;;;;;;;47.88;44.80;;;;;;;;;;5021786;28;20030;-58
2023/09/19 03:45:02;;;;;;;94.63;88.57;;;;;;;;;;5023487;28;20104;-58
2023/09/19 03:47:28;;;;;;;107.20;99.97;;;;;;;;;;5015685;28;20053;-58
2023/09/19 03:49:53;;;;;;;40.43;37.77;;;;;;;;;;5019788;28;20014;-59
2023/09/19 03:52:19;;;;;;;71.13;66.30;;;;;;;;;;5012681;28;20100;-58
2023/09/19 03:54:44;;;;;;;70.72;65.85;;;;;;;;;;5017370;28;20021;-57
2023/09/19 03:57:09;;;;;;;75.40;70.50;;;;;;;;;;5026681;28;20524;-57
2023/09/19 03:59:35;;;;;;;29.02;27.05;;;;;;;;;;5017023;28;20013;-58
2023/09/19 04:02:01;;;;;;;44.55;41.60;;;;;;;;;;5014530;28;20030;-58
2023/09/19 04:04:29;;;;;;;;;;;;;;;;;;5018922;28;20132;-58
2023/09/19 04:06:54;;;;;;;46.90;43.85;;;;;;;;;;5011070;28;20623;-58
2023/09/19 04:09:19;;;;;;;44.50;41.77;;;;;;;;;;5021421;28;20118;-58
2023/09/19 04:11:44;;;;;;;32.53;30.45;;;;;;;;;;5021547;28;20112;-58
2023/09/19 04:14:09;;;;;;;54.63;51.17;;;;;;;;;;5010951;28;20105;-58
2023/09/19 04:16:35;;;;;;;95.83;89.40;;;;;;;;;;5023009;28;20021;-58
2023/09/19 04:19:00;;;;;;;30.92;29.00;;;;;;;;;;5019045;28;20022;-58
2023/09/19 04:21:26;;;;;;;123.90;115.57;;;;;;;;;;5017172;28;20501;-57
2023/09/19 04:23:51;;;;;;;77.65;72.93;;;;;;;;;;5014358;28;20475;-57
2023/09/19 04:26:17;;;;;;;54.37;51.00;;;;;;;;;;5016747;28;20532;-58
2023/09/19 04:28:43;;;;;;;38.33;36.10;;;;;;;;;;5021383;28;20533;-57
2023/09/19 04:31:10;;;;;;;50.08;47.05;;;;;;;;;;5018986;28;20030;-58
2023/09/19 04:33:35;;;;;;;;;;;;;;;;;;5012425;28;20017;-58
2023/09/19 04:36:00;;;;;;;43.42;40.80;;;;;;;;;;5019204;28;19953;-57
2023/09/19 04:38:26;;;;;;;64.07;60.05;;;;;;;;;;5014429;28;20025;-58
2023/09/19 04:40:56;;;;;;;52.35;49.42;;;;;;;;;;5013165;28;20056;-58
2023/09/19 04:43:21;;;;;;;110.00;102.18;;;;;;;;;;5009055;28;20029;-57
2023/09/19 04:45:46;;;;;;;40.13;37.53;;;;;;;;;;5014906;28;20036;-57
2023/09/19 04:48:12;;;;;;;41.70;39.00;;;;;;;;;;5015646;28;20026;-57
2023/09/19 04:50:38;;;;;;;87.03;80.72;;;;;;;;;;5013017;28;20116;-57
2023/09/19 04:53:04;;;;;;;69.60;64.93;;;;;;;;;;5020700;28;20100;-57
2023/09/19 04:55:30;;;;;;;110.05;102.65;;;;;;;;;;5013795;28;20034;-58
2023/09/19 04:57:55;;;;;;;54.67;51.20;;;;;;;;;;5012416;28;20022;-57
2023/09/19 05:00:24;;;;;;;98.28;92.03;;;;;;;;;;5016551;28;20025;-57
2023/09/19 05:02:50;;;;;;;50.10;47.00;;;;;;;;;;5012633;28;20079;-57
2023/09/19 05:05:16;;;;;;;69.50;65.30;;;;;;;;;;5016114;28;20045;-57
2023/09/19 05:07:42;;;;;;;80.50;75.28;;;;;;;;;;5016653;28;20491;-57
2023/09/19 05:10:07;;;;;;;81.57;76.13;;;;;;;;;;5016301;28;20112;-57
2023/09/19 05:12:36;;;;;;;71.25;66.95;;;;;;;;;;5024957;28;20436;-58
2023/09/19 05:15:04;;;;;;;40.90;38.53;;;;;;;;;;5014174;28;20021;-57
2023/09/19 05:17:30;;;;;;;90.80;85.03;;;;;;;;;;5015288;28;20129;-57
2023/09/19 05:19:55;;;;;;;109.23;101.77;;;;;;;;;;5018228;28;20033;-58
2023/09/19 05:22:20;;;;;;;49.03;45.90;;;;;;;;;;5014693;28;20452;-57
2023/09/19 05:24:48;;;;;;;94.93;88.50;;;;;;;;;;5022045;28;20028;-58
2023/09/19 05:27:16;;;;;;;93.28;87.35;;;;;;;;;;5010539;28;20026;-57
2023/09/19 05:29:42;;;;;;;62.90;58.80;;;;;;;;;;5009849;28;20084;-57
2023/09/19 05:32:07;;;;;;;48.92;45.83;;;;;;;;;;5010358;28;20034;-58
2023/09/19 05:34:32;;;;;;;223.30;207.20;;;;;;;;;;5008497;28;20104;-58
2023/09/19 05:36:58;;;;;;;43.93;41.23;;;;;;;;;;5020236;28;20787;-57
2023/09/19 05:39:23;;;;;;;62.80;58.70;;;;;;;;;;5012598;28;20466;-58
2023/09/19 05:41:48;;;;;;;54.53;50.92;;;;;;;;;;5017268;28;20060;-57
2023/09/19 05:44:14;;;;;;;66.17;61.53;;;;;;;;;;5012023;28;20025;-57
2023/09/19 05:46:39;;;;;;;62.97;58.92;;;;;;;;;;5018899;28;20034;-56
2023/09/19 05:49:05;;;;;;;159.67;148.97;;;;;;;;;;5016741;28;20115;-57
2023/09/19 05:51:30;;;;;;;82.60;76.80;;;;;;;;;;5013214;28;21327;-57
2023/09/19 05:53:55;;;;;;;130.95;122.13;;;;;;;;;;5016174;28;20024;-58
2023/09/19 05:56:20;;;;;;;64.07;60.10;;;;;;;;;;5016048;28;20775;-57
2023/09/19 05:58:46;;;;;;;70.80;66.28;;;;;;;;;;5019435;28;20428;-57
2023/09/19 06:01:11;;;;;;;165.68;150.75;;;;;;;;;;5014171;28;20112;-59
2023/09/19 06:03:36;;;;;;;72.93;68.43;;;;;;;;;;5014678;28;20022;-57
2023/09/19 06:06:02;;;;;;;69.33;64.90;;;;;;;;;;5020147;28;20083;-57
2023/09/19 06:08:28;;;;;;;149.20;138.88;;;;;;;;;;5018448;28;20051;-57
2023/09/19 06:10:53;;;;;;;75.40;70.35;;;;;;;;;;5022411;28;20025;-57
2023/09/19 06:13:19;;;;;;;115.13;107.30;;;;;;;;;;5015186;28;20028;-56
2023/09/19 06:15:46;;;;;;;180.57;167.55;;;;;;;;;;5021367;28;20385;-57
2023/09/19 06:18:15;;;;;;;88.47;81.70;;;;;;;;;;5013081;28;20449;-57
2023/09/19 06:20:44;;;;;;;66.05;61.83;;;;;;;;;;5011125;28;20029;-59
2023/09/19 06:23:09;;;;;;;141.70;131.93;;;;;;;;;;5022979;28;20485;-57
2023/09/19 06:25:34;;;;;;;131.32;122.72;;;;;;;;;;5019035;28;20033;-57
2023/09/19 06:28:05;;;;;;;119.17;108.30;;;;;;;;;;5019580;28;20021;-57
2023/09/19 06:30:30;;;;;;;155.35;143.65;;;;;;;;;;5023063;28;20018;-57
2023/09/19 06:32:59;;;;;;;64.15;60.15;;;;;;;;;;5019504;28;20545;-56
2023/09/19 06:35:26;;;;;;;121.10;112.57;;;;;;;;;;5022508;28;20049;-57
2023/09/19 06:37:51;;;;;;;197.98;182.05;;;;;;;;;;5022940;28;20025;-58
2023/09/19 06:40:16;;;;;;;120.77;112.13;;;;;;;;;;5023958;28;20105;-57
2023/09/19 06:42:42;;;;;;;168.85;156.73;;;;;;;;;;5028501;28;20025;-57
2023/09/19 06:45:08;;;;;;;82.35;76.93;;;;;;;;;;5021630;28;20029;-56
2023/09/19 06:47:33;;;;;;;153.00;141.05;;;;;;;;;;5021425;28;20045;-57
2023/09/19 06:49:58;;;;;;;59.03;55.13;;;;;;;;;;5015598;28;20577;-57
2023/09/19 06:52:23;;;;;;;87.15;81.60;;;;;;;;;;5025280;28;20017;-56
2023/09/19 06:54:50;;;;;;;198.83;182.80;;;;;;;;;;5021188;28;20025;-57
2023/09/19 06:57:15;;;;;;;98.93;91.55;;;;;;;;;;5025784;28;20052;-57
2023/09/19 06:59:41;;;;;;;143.80;132.32;;;;;;;;;;5016394;28;20474;-57
2023/09/19 07:02:06;;;;;;;205.25;192.15;;;;;;;;;;5016872;28;20048;-58
2023/09/19 07:04:32;;;;;;;111.50;103.83;;;;;;;;;;5018828;28;20033;-57
2023/09/19 07:06:58;;;;;;;116.55;105.00;;;;;;;;;;5020716;28;20108;-57
2023/09/19 07:09:23;;;;;;;154.38;140.75;;;;;;;;;;5016670;28;20599;-58
2023/09/19 07:11:50;;;;;;;162.60;150.68;;;;;;;;;;5016994;28;20029;-58
2023/09/19 07:14:15;;;;;;;160.75;148.55;;;;;;;;;;5027912;28;20104;-57
2023/09/19 07:16:44;;;;;;;158.80;144.57;;;;;;;;;;5018644;28;20041;-57
2023/09/19 07:19:09;;;;;;;158.30;146.15;;;;;;;;;;5019291;28;20032;-57
2023/09/19 07:21:35;;;;;;;214.77;186.33;;;;;;;;;;5018669;28;20021;-58
2023/09/19 07:24:03;;;;;;;185.43;170.57;;;;;;;;;;5014727;28;20026;-57
2023/09/19 07:26:28;;;;;;;174.63;161.73;;;;;;;;;;5018727;28;20056;-56
2023/09/19 07:28:54;;;;;;;127.20;118.90;;;;;;;;;;5023042;28;20545;-58
2023/09/19 07:31:19;;;;;;;144.95;134.02;;;;;;;;;;5019489;28;20033;-57
2023/09/19 07:33:44;;;;;;;234.90;218.57;;;;;;;;;;5023519;28;20030;-57
2023/09/19 07:36:10;;;;;;;204.00;185.37;;;;;;;;;;5020104;28;20421;-57
2023/09/19 07:38:35;;;;;;;228.60;211.40;;;;;;;;;;5019129;28;20026;-58
2023/09/19 07:41:02;;;;;;;225.00;207.97;;;;;;;;;;5018144;28;20397;-57
2023/09/19 07:43:27;;;;;;;227.82;205.90;;;;;;;;;;5026224;28;20021;-57
2023/09/19 07:45:53;;;;;;;174.77;161.57;;;;;;;;;;5024737;28;20040;-58
2023/09/19 07:48:18;;;;;;;218.82;202.98;;;;;;;;;;5019797;28;20673;-57
2023/09/19 07:50:43;;;;;;;176.20;160.57;;;;;;;;;;5020871;28;20493;-57
2023/09/19 07:53:09;;;;;;;180.85;167.05;;;;;;;;;;5025384;28;20079;-56
2023/09/19 07:55:34;;;;;;;260.30;238.70;;;;;;;;;;5021978;28;20481;-58
2023/09/19 07:57:59;;;;;;;270.83;245.63;;;;;;;;;;5023563;28;20021;-57
2023/09/19 08:00:25;;;;;;;249.45;229.73;;;;;;;;;;5016626;28;20024;-58
2023/09/19 08:02:51;;;;;;;201.60;185.57;;;;;;;;;;5021964;28;20024;-57
2023/09/19 08:05:18;;;;;;;329.92;304.63;;;;;;;;;;5018683;28;20025;-57
2023/09/19 08:07:45;;;;;;;254.10;234.23;;;;;;;;;;5019533;28;20025;-58
2023/09/19 08:10:15;;;;;;;451.80;328.27;;;;;;;;;;5016609;28;20028;-57
2023/09/19 08:12:46;;;;;;;288.35;266.25;;;;;;;;;;5019946;28;20362;-57
2023/09/19 08:15:14;;;;;;;348.50;304.45;;;;;;;;;;5019694;28;20017;-57
2023/09/19 08:17:40;;;;;;;296.92;272.48;;;;;;;;;;5016756;28;20389;-57
2023/09/19 08:20:05;;;;;;;178.67;166.00;;;;;;;;;;5028742;28;20022;-57
2023/09/19 08:22:32;;;;;;;202.18;187.48;;;;;;;;;;5022203;28;20045;-57
2023/09/19 08:24:58;;;;;;;138.95;129.88;;;;;;;;;;5016149;28;20029;-56
2023/09/19 08:27:26;;;;;;;154.88;142.25;;;;;;;;;;5014841;28;20069;-57
2023/09/19 08:29:52;;;;;;;151.88;142.00;;;;;;;;;;5020982;28;20018;-57
2023/09/19 08:32:19;;;;;;;189.82;175.50;;;;;;;;;;5018223;28;20518;-56
2023/09/19 08:34:45;;;;;;;294.27;265.15;;;;;;;;;;5024067;28;20033;-57
2023/09/19 08:37:10;;;;;;;251.30;229.67;;;;;;;;;;5026023;28;20026;-57
2023/09/19 08:39:36;;;;;;;243.32;225.52;;;;;;;;;;5019695;28;20508;-56
2023/09/19 08:42:02;;;;;;;287.52;258.17;;;;;;;;;;5017853;28;20045;-56
2023/09/19 08:44:31;;;;;;;161.02;149.00;;;;;;;;;;5027405;28;20522;-56
2023/09/19 08:47:22;;;;;;;220.80;205.20;;;;;;;;;;5027354;28;20021;-56
2023/09/19 08:50:11;;;;;;;275.85;251.05;;;;;;;;;;5019846;28;20025;-56
2023/09/19 08:52:40;;;;;;;210.40;190.18;;;;;;;;;;5025780;28;20021;-56
2023/09/19 08:55:07;;;;;;;280.45;251.05;;;;;;;;;;5026975;28;20021;-57
2023/09/19 08:57:35;;;;;;;205.50;189.80;;;;;;;;;;5029624;28;20037;-56
2023/09/19 09:00:01;;;;;;;285.55;263.60;;;;;;;;;;5027170;28;20045;-57
2023/09/19 09:02:27;;;;;;;245.98;225.93;;;;;;;;;;5027623;28;20029;-57
2023/09/19 09:04:53;;;;;;;273.40;247.75;;;;;;;;;;5030547;28;20071;-57
2023/09/19 09:07:19;;;;;;;264.45;244.30;;;;;;;;;;5026176;28;20030;-56
2023/09/19 09:09:44;;;;;;;273.10;249.13;;;;;;;;;;5021638;28;20036;-56
2023/09/19 09:12:13;;;;;;;222.32;204.13;;;;;;;;;;5031650;28;20037;-57
2023/09/19 09:14:38;;;;;;;207.93;188.48;;;;;;;;;;5027018;28;20160;-57
2023/09/19 09:17:03;;;;;;;312.63;278.23;;;;;;;;;;5022704;28;20097;-57
2023/09/19 09:19:30;;;;;;;218.57;203.00;;;;;;;;;;5027612;28;20105;-56
2023/09/19 09:22:05;;;;;;;283.63;257.15;;;;;;;;;;5023934;28;20037;-57
2023/09/19 09:24:33;;;;;;;309.88;284.23;;;;;;;;;;5026950;28;20513;-57
2023/09/19 09:26:58;;;;;;;255.85;234.82;;;;;;;;;;5022623;28;20038;-56
2023/09/19 09:29:40;;;;;;;360.07;329.40;;;;;;;;;;5027825;28;20080;-56
2023/09/19 09:32:25;;;;;;;336.33;311.60;;;;;;;;;;5028932;28;20488;-57
2023/09/19 09:34:52;;;;;;;175.60;162.73;;;;;;;;;;5026710;28;20052;-58
2023/09/19 09:37:20;;;;;;;291.88;268.13;;;;;;;;;;5025547;28;20041;-56
2023/09/19 09:39:51;;;;;;;359.05;330.23;;;;;;;;;;5025594;28;20036;-57
2023/09/19 09:42:32;;;;;;;338.52;313.77;;;;;;;;;;5030958;28;20025;-57
2023/09/19 09:45:12;;;;;;;248.55;229.30;;;;;;;;;;5022569;28;20029;-58
2023/09/19 09:47:41;;;;;;;285.42;262.13;;;;;;;;;;5015565;28;20041;-57
2023/09/19 09:50:16;;;;;;;264.77;245.18;;;;;;;;;;5027570;28;20477;-58
2023/09/19 09:52:46;;;;;;;231.43;213.57;;;;;;;;;;5022492;28;20042;-56
2023/09/19 09:55:11;;;;;;;220.40;205.30;;;;;;;;;;5020743;28;20562;-57
2023/09/19 09:57:36;;;;;;;247.17;224.17;;;;;;;;;;5032432;28;20037;-56
2023/09/19 10:02:37;;;;;;;315.92;290.27;;;;;;;;;;5033846;28;20029;-57
2023/09/19 10:08:08;;;;;;;227.82;210.32;;;;;;;;;;5017384;28;20097;-57
2023/09/19 10:13:18;;;;;;;350.83;322.25;;;;;;;;;;5052441;28;20476;-57
2023/09/19 10:15:48;;;;;;;298.10;266.70;;;;;;;;;;5012532;28;20034;-56
2023/09/19 10:18:18;;;;;;;268.17;248.65;;;;;;;;;;5012577;28;20422;-56
2023/09/19 10:20:45;;;;;;;256.13;238.00;;;;;;;;;;5011744;28;20026;-58
2023/09/19 10:23:12;;;;;;;239.18;221.40;;;;;;;;;;5011449;28;20405;-57
2023/09/19 10:25:38;;;;;;;212.02;196.95;;;;;;;;;;5046541;28;20020;-57
2023/09/19 10:28:10;;;;;;;327.02;296.55;;;;;;;;;;5053235;28;20059;-57
2023/09/19 10:30:36;;;;;;;533.60;333.92;;;;;;;;;;5044606;28;20021;-57
2023/09/19 10:33:02;;;;;;;;;;;;;;;;;;5050553;28;20037;-57
2023/09/19 10:35:27;;;;;;;181.57;168.82;;;;;;;;;;5033821;28;20268;-57
2023/09/19 10:37:54;;;;;;;242.45;224.48;;;;;;;;;;5032354;28;20396;-56
2023/09/19 10:40:20;;;;;;;413.65;342.05;;;;;;;;;;5051222;28;20078;-56
2023/09/19 10:42:48;;;;;;;343.38;311.75;;;;;;;;;;5052618;28;20029;-57
2023/09/19 10:45:15;;;;;;;286.27;259.92;;;;;;;;;;5052355;28;20025;-57
2023/09/19 10:47:40;;;;;;;291.48;264.70;;;;;;;;;;5046601;28;20032;-57
2023/09/19 10:50:12;;;;;;;398.73;365.53;;;;;;;;;;5020294;28;20021;-57
2023/09/19 10:52:40;;;;;;;322.70;296.98;;;;;;;;;;5032383;28;20435;-57
2023/09/19 10:55:06;;;;;;;292.73;271.08;;;;;;;;;;5028991;28;20112;-57
2023/09/19 10:57:32;;;;;;;438.65;397.85;;;;;;;;;;5031928;28;20160;-57
2023/09/19 11:00:23;;;;;;;281.10;262.23;;;;;;;;;;5027126;28;20389;-57
2023/09/19 11:03:07;;;;;;;325.05;300.20;;;;;;;;;;5024411;28;20447;-58
2023/09/19 11:05:33;;;;;;;344.45;315.50;;;;;;;;;;5030502;28;20071;-57
2023/09/19 11:08:03;;;;;;;355.42;325.50;;;;;;;;;;5031613;28;20029;-58
2023/09/19 11:10:45;;;;;;;377.80;343.23;;;;;;;;;;5031526;28;20396;-57
2023/09/19 11:13:34;;;;;;;457.88;385.33;;;;;;;;;;5031258;28;20040;-57
2023/09/19 11:16:00;;;;;;;415.27;374.73;;;;;;;;;;5031364;28;20163;-57
2023/09/19 11:18:41;;;;;;;341.35;312.90;;;;;;;;;;5031662;28;20545;-56
2023/09/19 11:21:25;;;;;;;344.92;313.27;;;;;;;;;;5023773;28;20021;-57
2023/09/19 11:24:12;;;;;;;383.60;352.85;;;;;;;;;;5031718;28;20024;-58
2023/09/19 11:26:47;;;;;;;288.23;266.17;;;;;;;;;;5031489;28;20017;-57
2023/09/19 11:29:25;;;;;;;245.13;224.20;;;;;;;;;;5031167;28;20087;-57
2023/09/19 11:31:51;;;;;;;360.55;324.80;;;;;;;;;;5030812;28;20113;-58
2023/09/19 11:34:35;;;;;;;380.33;299.95;;;;;;;;;;5031401;28;20112;-56
2023/09/19 11:37:01;;;;;;;569.25;495.23;;;;;;;;;;5024888;28;20389;-58
2023/09/19 11:39:27;;;;;;;;;;;;;;;;;;5030565;28;20483;-57
2023/09/19 11:41:56;;;;;;;380.00;346.67;;;;;;;;;;5038545;28;19917;-57
2023/09/19 11:44:30;;;;;;;396.77;358.83;;;;;;;;;;5025120;28;20017;-57
2023/09/19 11:46:56;;;;;;;415.83;380.38;;;;;;;;;;5027334;28;20440;-57
2023/09/19 11:49:23;;;;;;;;;;;;;;;;;;5031105;28;20048;-56
2023/09/19 11:51:51;;;;;;;259.13;240.32;;;;;;;;;;5031186;28;19909;-57
2023/09/19 11:54:21;;;;;;;366.83;334.23;;;;;;;;;;5023804;28;20470;-58
2023/09/19 11:56:50;;;;;;;323.55;296.30;;;;;;;;;;5023126;28;20033;-57
2023/09/19 11:59:21;;;;;;;382.67;341.00;;;;;;;;;;5020606;28;20029;-57
2023/09/19 12:01:50;;;;;;;534.00;376.08;;;;;;;;;;5023902;28;20481;-57
2023/09/19 12:04:17;;;;;;;459.50;418.77;;;;;;;;;;5038931;28;20109;-56
2023/09/19 12:06:44;;;;;;;405.80;373.92;;;;;;;;;;5030741;28;20057;-56
2023/09/19 12:09:13;;;;;;;443.85;405.85;;;;;;;;;;5030398;28;20036;-57
2023/09/19 12:11:42;;;;;;;;;;;;;;;;;;5027109;28;20368;-57
2023/09/19 12:14:08;;;;;;;402.85;368.65;;;;;;;;;;5026063;28;19932;-57
2023/09/19 12:16:33;;;;;;;386.45;356.02;;;;;;;;;;5029842;28;20469;-58
2023/09/19 12:19:17;;;;;;;490.35;452.52;;;;;;;;;;5045379;28;20373;-57
2023/09/19 12:21:42;;;;;;;477.52;431.10;;;;;;;;;;5030512;28;20036;-57
2023/09/19 12:24:13;;;;;;;;;;;;;;;;;;5031029;28;20438;-57
2023/09/19 12:26:45;;;;;;;355.27;327.63;;;;;;;;;;5029637;28;19912;-56
2023/09/19 12:29:14;;;;;;;454.48;417.00;;;;;;;;;;5022096;28;20029;-57
2023/09/19 12:31:57;;;;;;;341.88;307.75;;;;;;;;;;5030411;28;20124;-57
2023/09/19 12:34:29;;;;;;;374.73;340.17;;;;;;;;;;5030758;28;20016;-57
2023/09/19 12:37:20;;;;;;;446.75;410.45;;;;;;;;;;5035335;28;20028;-57
2023/09/19 12:39:49;;;;;;;349.58;320.73;;;;;;;;;;5014121;28;20037;-56
2023/09/19 12:42:15;;;;;;;427.88;389.85;;;;;;;;;;5044697;28;20070;-56
2023/09/19 12:44:47;;;;;;;345.63;315.98;;;;;;;;;;5042659;28;20020;-57
2023/09/19 12:47:15;;;;;;;388.75;355.30;;;;;;;;;;5050697;28;20074;-57
2023/09/19 12:49:59;;;;;;;453.42;415.98;;;;;;;;;;5045438;28;20401;-56
2023/09/19 12:52:26;;;;;;;424.48;387.30;;;;;;;;;;5034238;28;20020;-57
2023/09/19 12:54:51;;;;;;;315.63;287.25;;;;;;;;;;5045197;28;20036;-57
2023/09/19 12:57:25;;;;;;;365.23;331.90;;;;;;;;;;5019429;28;20542;-56
2023/09/19 12:59:52;;;;;;;499.63;456.45;;;;;;;;;;5030031;28;20018;-56
2023/09/19 13:02:20;;;;;;;;;;;;;;;;;;5029095;28;20108;-56
2023/09/19 13:04:52;;;;;;;406.85;373.90;;;;;;;;;;5029555;28;20276;-55
2023/09/19 13:07:40;;;;;;;338.15;308.23;;;;;;;;;;5024454;28;20437;-56
2023/09/19 13:10:08;;;;;;;440.60;401.02;;;;;;;;;;5020172;28;20018;-57
2023/09/19 13:12:38;;;;;;;553.80;511.45;;;;;;;;;;5029948;28;20026;-56
2023/09/19 13:15:23;;;;;;;478.45;439.35;;;;;;;;;;5022108;28;20388;-57
2023/09/19 13:17:49;;;;;;;396.13;360.23;;;;;;;;;;5027893;28;20102;-57
2023/09/19 13:20:49;;;;;;;344.70;314.48;;;;;;;;;;5028847;28;20475;-57
2023/09/19 13:23:34;;;;;;;256.17;233.88;;;;;;;;;;5029905;28;20032;-57
2023/09/19 13:25:59;;;;;;;375.77;347.63;;;;;;;;;;5029412;28;20044;-56
2023/09/19 13:28:25;;;;;;;409.63;376.17;;;;;;;;;;5030041;28;20009;-57
2023/09/19 13:30:50;;;;;;;360.67;331.27;;;;;;;;;;5026344;28;20032;-57
2023/09/19 13:33:20;;;;;;;522.60;479.77;;;;;;;;;;5014555;28;20458;-57
2023/09/19 13:35:46;;;;;;;500.00;459.58;;;;;;;;;;5028618;28;20095;-57
2023/09/19 13:38:12;;;;;;;392.05;360.35;;;;;;;;;;5025119;28;20101;-57
2023/09/19 13:40:43;;;;;;;400.80;368.55;;;;;;;;;;5025511;28;20487;-57
2023/09/19 13:43:09;;;;;;;471.40;437.55;;;;;;;;;;5028851;28;20032;-57
2023/09/19 13:45:34;;;;;;;476.67;433.40;;;;;;;;;;5048742;28;20017;-57
2023/09/19 13:47:59;;;;;;;356.27;318.93;;;;;;;;;;5019317;28;20032;-57
2023/09/19 13:50:25;;;;;;;464.70;423.90;;;;;;;;;;5014797;28;20633;-58
2023/09/19 13:52:53;;;;;;;541.47;438.20;;;;;;;;;;5013396;28;20489;-57
2023/09/19 13:55:22;;;;;;;400.38;366.33;;;;;;;;;;5018262;28;20018;-58
2023/09/19 13:57:52;;;;;;;343.75;315.00;;;;;;;;;;5016266;28;20041;-58
2023/09/19 14:00:17;;;;;;;518.20;470.80;;;;;;;;;;5025013;28;20027;-57
2023/09/19 14:02:45;;;;;;;445.13;408.23;;;;;;;;;;5020683;28;20053;-57
2023/09/19 14:05:12;;;;;;;523.97;483.08;;;;;;;;;;5017362;28;20032;-57
2023/09/19 14:07:37;;;;;;;450.27;413.70;;;;;;;;;;5024508;28;20021;-57
2023/09/19 14:10:03;;;;;;;458.00;417.73;;;;;;;;;;5022819;28;20025;-56
2023/09/19 14:12:29;;;;;;;440.67;404.30;;;;;;;;;;5045538;28;20091;-58
2023/09/19 14:14:56;;;;;;;433.52;392.38;;;;;;;;;;5049556;28;20025;-57
2023/09/19 14:17:21;;;;;;;510.33;456.85;;;;;;;;;;5049744;28;20477;-57